sensor_id;sensor_type;location;lat;lon;timestamp;temperature;humidity
53926;DHT22;39836;52.754;6.866;2023-09-12T00:01:52;19.90;82.20
53926;DHT22;39836;52.754;6.866;2023-09-12T00:04:17;20.00;82.20
53926;DHT22;39836;52.754;6.866;2023-09-12T00:06:43;20.00;82.40
53926;DHT22;39836;52.754;6.866;2023-09-12T00:09:09;19.90;82.40
53926;DHT22;39836;52.754;6.866;2023-09-12T00:11:36;19.80;82.50
53926;DHT22;39836;52.754;6.866;2023-09-12T00:14:01;19.80;82.60
53926;DHT22;39836;52.754;6.866;2023-09-12T00:16:27;19.80;82.70
53926;DHT22;39836;52.754;6.866;2023-09-12T00:18:53;19.80;82.50
53926;DHT22;39836;52.754;6.866;2023-09-12T00:21:18;19.80;82.40
53926;DHT22;39836;52.754;6.866;2023-09-12T00:23:44;19.80;82.30
53926;DHT22;39836;52.754;6.866;2023-09-12T00:26:10;19.90;82.40
53926;DHT22;39836;52.754;6.866;2023-09-12T00:28:35;19.90;82.50
53926;DHT22;39836;52.754;6.866;2023-09-12T00:31:02;19.90;82.80
53926;DHT22;39836;52.754;6.866;2023-09-12T00:33:28;19.90;82.80
53926;DHT22;39836;52.754;6.866;2023-09-12T00:35:54;19.90;82.50
53926;DHT22;39836;52.754;6.866;2023-09-12T00:38:19;19.80;82.50
53926;DHT22;39836;52.754;6.866;2023-09-12T00:40:45;19.80;82.40
53926;DHT22;39836;52.754;6.866;2023-09-12T00:43:11;19.80;82.60
53926;DHT22;39836;52.754;6.866;2023-09-12T00:45:36;19.70;82.70
53926;DHT22;39836;52.754;6.866;2023-09-12T00:48:04;19.70;82.90
53926;DHT22;39836;52.754;6.866;2023-09-12T00:50:31;19.60;83.10
53926;DHT22;39836;52.754;6.866;2023-09-12T00:52:57;19.70;83.10
53926;DHT22;39836;52.754;6.866;2023-09-12T00:55:24;19.60;83.20
53926;DHT22;39836;52.754;6.866;2023-09-12T00:57:51;19.60;83.60
53926;DHT22;39836;52.754;6.866;2023-09-12T01:00:17;19.60;83.30
53926;DHT22;39836;52.754;6.866;2023-09-12T01:02:45;19.70;83.20
53926;DHT22;39836;52.754;6.866;2023-09-12T01:05:15;19.70;83.10
53926;DHT22;39836;52.754;6.866;2023-09-12T01:07:43;19.70;83.30
53926;DHT22;39836;52.754;6.866;2023-09-12T01:10:09;19.70;83.50
53926;DHT22;39836;52.754;6.866;2023-09-12T01:12:35;19.70;83.50
53926;DHT22;39836;52.754;6.866;2023-09-12T01:15:01;19.70;83.40
53926;DHT22;39836;52.754;6.866;2023-09-12T01:17:30;19.70;83.20
53926;DHT22;39836;52.754;6.866;2023-09-12T01:19:55;19.70;83.10
53926;DHT22;39836;52.754;6.866;2023-09-12T01:28:09;19.70;83.00
53926;DHT22;39836;52.754;6.866;2023-09-12T01:30:36;19.50;82.80
53926;DHT22;39836;52.754;6.866;2023-09-12T01:33:04;19.50;82.80
53926;DHT22;39836;52.754;6.866;2023-09-12T01:35:30;19.40;82.80
53926;DHT22;39836;52.754;6.866;2023-09-12T01:37:56;19.40;83.00
53926;DHT22;39836;52.754;6.866;2023-09-12T01:40:43;19.40;83.00
53926;DHT22;39836;52.754;6.866;2023-09-12T01:43:09;19.40;82.90
53926;DHT22;39836;52.754;6.866;2023-09-12T01:45:35;19.30;82.80
53926;DHT22;39836;52.754;6.866;2023-09-12T01:48:04;19.20;82.70
53926;DHT22;39836;52.754;6.866;2023-09-12T01:50:31;19.10;82.60
53926;DHT22;39836;52.754;6.866;2023-09-12T01:52:58;19.00;82.60
53926;DHT22;39836;52.754;6.866;2023-09-12T01:55:25;18.90;82.60
53926;DHT22;39836;52.754;6.866;2023-09-12T01:57:51;18.90;82.70
53926;DHT22;39836;52.754;6.866;2023-09-12T02:00:21;18.90;82.80
53926;DHT22;39836;52.754;6.866;2023-09-12T02:02:48;19.00;82.90
53926;DHT22;39836;52.754;6.866;2023-09-12T02:05:16;19.00;82.90
53926;DHT22;39836;52.754;6.866;2023-09-12T02:07:44;18.90;82.80
53926;DHT22;39836;52.754;6.866;2023-09-12T02:10:10;18.90;82.80
53926;DHT22;39836;52.754;6.866;2023-09-12T02:12:35;18.90;82.80
53926;DHT22;39836;52.754;6.866;2023-09-12T02:15:01;18.90;82.70
53926;DHT22;39836;52.754;6.866;2023-09-12T02:17:27;18.90;82.80
53926;DHT22;39836;52.754;6.866;2023-09-12T02:19:53;18.90;82.80
53926;DHT22;39836;52.754;6.866;2023-09-12T02:22:18;18.90;82.80
53926;DHT22;39836;52.754;6.866;2023-09-12T02:24:44;18.90;82.80
53926;DHT22;39836;52.754;6.866;2023-09-12T02:27:10;18.90;82.90
53926;DHT22;39836;52.754;6.866;2023-09-12T02:29:36;18.90;83.00
53926;DHT22;39836;52.754;6.866;2023-09-12T02:32:02;18.90;83.00
53926;DHT22;39836;52.754;6.866;2023-09-12T02:34:28;18.80;82.90
53926;DHT22;39836;52.754;6.866;2023-09-12T02:36:54;18.70;82.80
53926;DHT22;39836;52.754;6.866;2023-09-12T02:39:19;18.70;82.80
53926;DHT22;39836;52.754;6.866;2023-09-12T02:41:45;18.70;82.80
53926;DHT22;39836;52.754;6.866;2023-09-12T02:44:10;18.70;82.90
53926;DHT22;39836;52.754;6.866;2023-09-12T02:46:36;18.80;83.00
53926;DHT22;39836;52.754;6.866;2023-09-12T02:49:02;18.70;83.00
53926;DHT22;39836;52.754;6.866;2023-09-12T02:51:28;18.70;82.90
53926;DHT22;39836;52.754;6.866;2023-09-12T02:53:54;18.70;82.90
53926;DHT22;39836;52.754;6.866;2023-09-12T02:56:20;18.70;82.90
53926;DHT22;39836;52.754;6.866;2023-09-12T02:58:49;18.70;82.90
53926;DHT22;39836;52.754;6.866;2023-09-12T03:01:19;18.70;82.90
53926;DHT22;39836;52.754;6.866;2023-09-12T03:03:49;18.70;83.00
53926;DHT22;39836;52.754;6.866;2023-09-12T03:06:15;18.70;83.00
53926;DHT22;39836;52.754;6.866;2023-09-12T03:08:42;18.70;83.00
53926;DHT22;39836;52.754;6.866;2023-09-12T03:11:09;18.70;83.00
53926;DHT22;39836;52.754;6.866;2023-09-12T03:13:35;18.80;83.10
53926;DHT22;39836;52.754;6.866;2023-09-12T03:16:01;18.80;83.10
53926;DHT22;39836;52.754;6.866;2023-09-12T03:18:27;18.80;83.10
53926;DHT22;39836;52.754;6.866;2023-09-12T03:20:52;18.80;83.20
53926;DHT22;39836;52.754;6.866;2023-09-12T03:23:21;18.80;83.20
53926;DHT22;39836;52.754;6.866;2023-09-12T03:25:47;18.80;83.30
53926;DHT22;39836;52.754;6.866;2023-09-12T03:28:13;18.80;83.30
53926;DHT22;39836;52.754;6.866;2023-09-12T03:30:39;18.80;83.30
53926;DHT22;39836;52.754;6.866;2023-09-12T03:33:05;18.80;83.40
53926;DHT22;39836;52.754;6.866;2023-09-12T03:35:32;18.80;83.40
53926;DHT22;39836;52.754;6.866;2023-09-12T03:37:58;18.80;83.40
53926;DHT22;39836;52.754;6.866;2023-09-12T03:40:24;18.80;83.50
53926;DHT22;39836;52.754;6.866;2023-09-12T03:42:49;18.80;83.40
53926;DHT22;39836;52.754;6.866;2023-09-12T03:45:15;18.80;83.50
53926;DHT22;39836;52.754;6.866;2023-09-12T03:47:41;18.80;83.40
53926;DHT22;39836;52.754;6.866;2023-09-12T03:50:08;18.80;83.40
53926;DHT22;39836;52.754;6.866;2023-09-12T03:52:33;18.70;83.50
53926;DHT22;39836;52.754;6.866;2023-09-12T03:54:59;18.70;83.50
53926;DHT22;39836;52.754;6.866;2023-09-12T03:57:26;18.60;83.50
53926;DHT22;39836;52.754;6.866;2023-09-12T03:59:52;18.60;83.60
53926;DHT22;39836;52.754;6.866;2023-09-12T04:02:18;18.60;83.70
53926;DHT22;39836;52.754;6.866;2023-09-12T04:04:44;18.60;83.80
53926;DHT22;39836;52.754;6.866;2023-09-12T04:07:09;18.50;83.80
53926;DHT22;39836;52.754;6.866;2023-09-12T04:09:35;18.60;83.80
53926;DHT22;39836;52.754;6.866;2023-09-12T04:12:01;18.50;83.80
53926;DHT22;39836;52.754;6.866;2023-09-12T04:14:27;18.60;83.80
53926;DHT22;39836;52.754;6.866;2023-09-12T04:16:52;18.60;83.80
53926;DHT22;39836;52.754;6.866;2023-09-12T04:19:18;18.60;83.80
53926;DHT22;39836;52.754;6.866;2023-09-12T04:21:43;18.60;83.90
53926;DHT22;39836;52.754;6.866;2023-09-12T04:24:09;18.60;83.80
53926;DHT22;39836;52.754;6.866;2023-09-12T04:26:35;18.60;83.90
53926;DHT22;39836;52.754;6.866;2023-09-12T04:29:00;18.60;83.90
53926;DHT22;39836;52.754;6.866;2023-09-12T04:31:26;18.60;83.80
53926;DHT22;39836;52.754;6.866;2023-09-12T04:33:52;18.60;83.80
53926;DHT22;39836;52.754;6.866;2023-09-12T04:36:18;18.60;83.80
53926;DHT22;39836;52.754;6.866;2023-09-12T04:38:44;18.60;83.80
53926;DHT22;39836;52.754;6.866;2023-09-12T04:41:12;18.60;83.80
53926;DHT22;39836;52.754;6.866;2023-09-12T04:43:41;18.60;83.80
53926;DHT22;39836;52.754;6.866;2023-09-12T04:46:06;18.60;83.80
53926;DHT22;39836;52.754;6.866;2023-09-12T04:48:32;18.50;83.70
53926;DHT22;39836;52.754;6.866;2023-09-12T04:50:58;18.50;83.70
53926;DHT22;39836;52.754;6.866;2023-09-12T04:53:24;18.40;83.70
53926;DHT22;39836;52.754;6.866;2023-09-12T04:55:52;18.40;83.70
53926;DHT22;39836;52.754;6.866;2023-09-12T04:58:19;18.40;83.80
53926;DHT22;39836;52.754;6.866;2023-09-12T05:00:45;18.40;83.70
53926;DHT22;39836;52.754;6.866;2023-09-12T05:03:11;18.40;83.80
53926;DHT22;39836;52.754;6.866;2023-09-12T05:05:37;18.40;83.80
53926;DHT22;39836;52.754;6.866;2023-09-12T05:08:03;18.40;83.80
53926;DHT22;39836;52.754;6.866;2023-09-12T05:10:30;18.40;83.80
53926;DHT22;39836;52.754;6.866;2023-09-12T05:12:55;18.40;83.80
53926;DHT22;39836;52.754;6.866;2023-09-12T05:15:21;18.50;83.80
53926;DHT22;39836;52.754;6.866;2023-09-12T05:17:47;18.40;83.70
53926;DHT22;39836;52.754;6.866;2023-09-12T05:20:12;18.40;83.80
53926;DHT22;39836;52.754;6.866;2023-09-12T05:22:38;18.40;83.80
53926;DHT22;39836;52.754;6.866;2023-09-12T05:25:04;18.50;83.90
53926;DHT22;39836;52.754;6.866;2023-09-12T05:27:30;18.50;84.00
53926;DHT22;39836;52.754;6.866;2023-09-12T05:29:55;18.50;83.90
53926;DHT22;39836;52.754;6.866;2023-09-12T05:32:21;18.50;83.90
53926;DHT22;39836;52.754;6.866;2023-09-12T05:34:47;18.50;83.90
53926;DHT22;39836;52.754;6.866;2023-09-12T05:37:15;18.50;83.90
53926;DHT22;39836;52.754;6.866;2023-09-12T05:39:41;18.40;83.90
53926;DHT22;39836;52.754;6.866;2023-09-12T05:42:07;18.40;84.00
53926;DHT22;39836;52.754;6.866;2023-09-12T05:44:33;18.40;84.20
53926;DHT22;39836;52.754;6.866;2023-09-12T05:46:58;18.40;84.30
53926;DHT22;39836;52.754;6.866;2023-09-12T05:49:24;18.50;84.30
53926;DHT22;39836;52.754;6.866;2023-09-12T05:51:50;18.50;84.40
53926;DHT22;39836;52.754;6.866;2023-09-12T05:54:16;18.40;84.30
53926;DHT22;39836;52.754;6.866;2023-09-12T05:56:42;18.50;84.30
53926;DHT22;39836;52.754;6.866;2023-09-12T05:59:08;18.50;84.30
53926;DHT22;39836;52.754;6.866;2023-09-12T06:01:33;18.60;84.30
53926;DHT22;39836;52.754;6.866;2023-09-12T06:03:59;18.60;84.20
53926;DHT22;39836;52.754;6.866;2023-09-12T06:06:25;18.60;84.10
53926;DHT22;39836;52.754;6.866;2023-09-12T06:08:51;18.70;84.10
53926;DHT22;39836;52.754;6.866;2023-09-12T06:11:19;18.70;84.10
53926;DHT22;39836;52.754;6.866;2023-09-12T06:13:44;18.80;84.10
53926;DHT22;39836;52.754;6.866;2023-09-12T06:16:10;18.80;84.10
53926;DHT22;39836;52.754;6.866;2023-09-12T06:18:36;18.80;84.10
53926;DHT22;39836;52.754;6.866;2023-09-12T06:21:01;18.90;84.10
53926;DHT22;39836;52.754;6.866;2023-09-12T06:23:30;18.90;84.00
53926;DHT22;39836;52.754;6.866;2023-09-12T06:25:56;18.90;84.00
53926;DHT22;39836;52.754;6.866;2023-09-12T06:28:31;18.90;84.00
53926;DHT22;39836;52.754;6.866;2023-09-12T06:30:57;19.00;84.00
53926;DHT22;39836;52.754;6.866;2023-09-12T06:33:24;19.00;84.00
53926;DHT22;39836;52.754;6.866;2023-09-12T06:35:50;19.00;83.90
53926;DHT22;39836;52.754;6.866;2023-09-12T06:38:18;19.00;83.90
53926;DHT22;39836;52.754;6.866;2023-09-12T06:40:44;19.00;83.90
53926;DHT22;39836;52.754;6.866;2023-09-12T06:43:10;19.00;83.80
53926;DHT22;39836;52.754;6.866;2023-09-12T06:45:36;18.90;83.70
53926;DHT22;39836;52.754;6.866;2023-09-12T15:42:02;26.00;73.80
53926;DHT22;39836;52.754;6.866;2023-09-12T15:44:29;25.70;73.70
53926;DHT22;39836;52.754;6.866;2023-09-12T15:46:55;25.70;73.80
53926;DHT22;39836;52.754;6.866;2023-09-12T15:49:23;25.70;73.90
53926;DHT22;39836;52.754;6.866;2023-09-12T15:51:49;25.60;74.00
53926;DHT22;39836;52.754;6.866;2023-09-12T15:54:14;25.60;74.10
53926;DHT22;39836;52.754;6.866;2023-09-12T15:56:40;25.50;74.10
53926;DHT22;39836;52.754;6.866;2023-09-12T15:59:06;25.60;74.10
53926;DHT22;39836;52.754;6.866;2023-09-12T16:01:31;25.60;73.90
53926;DHT22;39836;52.754;6.866;2023-09-12T16:03:57;25.50;74.00
53926;DHT22;39836;52.754;6.866;2023-09-12T16:06:23;25.70;74.10
53926;DHT22;39836;52.754;6.866;2023-09-12T16:08:49;25.70;73.90
53926;DHT22;39836;52.754;6.866;2023-09-12T16:11:15;25.70;73.80
53926;DHT22;39836;52.754;6.866;2023-09-12T16:13:44;25.70;73.90
53926;DHT22;39836;52.754;6.866;2023-09-12T16:16:10;25.70;73.60
53926;DHT22;39836;52.754;6.866;2023-09-12T16:18:35;25.60;73.40
53926;DHT22;39836;52.754;6.866;2023-09-12T16:21:04;25.50;73.50
53926;DHT22;39836;52.754;6.866;2023-09-12T16:23:29;25.40;73.70
53926;DHT22;39836;52.754;6.866;2023-09-12T16:26:01;25.20;73.70
53926;DHT22;39836;52.754;6.866;2023-09-12T16:28:27;25.20;73.80
53926;DHT22;39836;52.754;6.866;2023-09-12T16:30:53;25.10;73.80
53926;DHT22;39836;52.754;6.866;2023-09-12T16:33:19;25.00;73.90
53926;DHT22;39836;52.754;6.866;2023-09-12T16:35:45;24.90;73.90
53926;DHT22;39836;52.754;6.866;2023-09-12T16:38:12;24.80;73.90
53926;DHT22;39836;52.754;6.866;2023-09-12T16:40:37;24.70;74.10
53926;DHT22;39836;52.754;6.866;2023-09-12T16:43:05;24.60;74.10
53926;DHT22;39836;52.754;6.866;2023-09-12T16:45:30;24.50;74.20
53926;DHT22;39836;52.754;6.866;2023-09-12T16:47:56;24.50;74.40
53926;DHT22;39836;52.754;6.866;2023-09-12T16:50:23;24.40;74.50
53926;DHT22;39836;52.754;6.866;2023-09-12T16:52:50;24.30;74.60
53926;DHT22;39836;52.754;6.866;2023-09-12T16:55:15;24.30;74.80
53926;DHT22;39836;52.754;6.866;2023-09-12T16:57:42;24.20;75.10
53926;DHT22;39836;52.754;6.866;2023-09-12T17:00:08;24.20;75.50
53926;DHT22;39836;52.754;6.866;2023-09-12T17:02:34;24.10;75.70
53926;DHT22;39836;52.754;6.866;2023-09-12T17:05:02;24.10;76.00
53926;DHT22;39836;52.754;6.866;2023-09-12T17:07:28;24.00;76.10
53926;DHT22;39836;52.754;6.866;2023-09-12T17:09:54;23.90;76.30
53926;DHT22;39836;52.754;6.866;2023-09-12T17:12:20;23.70;76.40
53926;DHT22;39836;52.754;6.866;2023-09-12T17:14:46;23.60;76.70
53926;DHT22;39836;52.754;6.866;2023-09-12T17:17:11;23.60;76.70
53926;DHT22;39836;52.754;6.866;2023-09-12T17:19:37;23.50;76.70
53926;DHT22;39836;52.754;6.866;2023-09-12T17:22:03;23.50;77.00
53926;DHT22;39836;52.754;6.866;2023-09-12T17:24:29;23.50;77.00
53926;DHT22;39836;52.754;6.866;2023-09-12T17:26:55;23.40;77.00
53926;DHT22;39836;52.754;6.866;2023-09-12T17:29:20;23.30;77.10
53926;DHT22;39836;52.754;6.866;2023-09-12T17:31:48;23.20;77.20
53926;DHT22;39836;52.754;6.866;2023-09-12T17:34:14;23.20;77.20
53926;DHT22;39836;52.754;6.866;2023-09-12T17:36:39;23.20;77.20
53926;DHT22;39836;52.754;6.866;2023-09-12T17:39:05;23.00;77.30
53926;DHT22;39836;52.754;6.866;2023-09-12T17:41:31;23.00;77.40
53926;DHT22;39836;52.754;6.866;2023-09-12T17:43:57;22.90;77.40
53926;DHT22;39836;52.754;6.866;2023-09-12T17:46:23;22.90;77.40
53926;DHT22;39836;52.754;6.866;2023-09-12T17:48:48;22.80;77.40
53926;DHT22;39836;52.754;6.866;2023-09-12T17:51:14;22.80;77.40
53926;DHT22;39836;52.754;6.866;2023-09-12T17:53:39;22.70;77.40
53926;DHT22;39836;52.754;6.866;2023-09-12T17:56:06;22.70;77.40
53926;DHT22;39836;52.754;6.866;2023-09-12T17:58:32;22.60;77.40
53926;DHT22;39836;52.754;6.866;2023-09-12T18:00:59;22.60;77.40
53926;DHT22;39836;52.754;6.866;2023-09-12T18:03:25;22.60;77.50
53926;DHT22;39836;52.754;6.866;2023-09-12T18:05:52;22.50;77.40
53926;DHT22;39836;52.754;6.866;2023-09-12T18:08:18;22.40;77.50
53926;DHT22;39836;52.754;6.866;2023-09-12T18:10:43;22.40;77.50
53926;DHT22;39836;52.754;6.866;2023-09-12T18:13:09;22.30;77.50
53926;DHT22;39836;52.754;6.866;2023-09-12T18:15:35;22.20;77.50
53926;DHT22;39836;52.754;6.866;2023-09-12T18:18:00;22.10;77.60
53926;DHT22;39836;52.754;6.866;2023-09-12T18:20:26;22.10;77.60
53926;DHT22;39836;52.754;6.866;2023-09-12T18:22:52;22.00;77.70
53926;DHT22;39836;52.754;6.866;2023-09-12T18:25:18;21.90;77.70
53926;DHT22;39836;52.754;6.866;2023-09-12T18:27:43;21.90;77.80
53926;DHT22;39836;52.754;6.866;2023-09-12T18:30:09;21.80;77.90
53926;DHT22;39836;52.754;6.866;2023-09-12T18:32:35;21.90;77.90
53926;DHT22;39836;52.754;6.866;2023-09-12T18:35:01;21.80;78.00
53926;DHT22;39836;52.754;6.866;2023-09-12T18:37:33;21.80;77.90
53926;DHT22;39836;52.754;6.866;2023-09-12T18:39:59;21.80;78.00
53926;DHT22;39836;52.754;6.866;2023-09-12T18:42:24;21.70;78.00
53926;DHT22;39836;52.754;6.866;2023-09-12T18:44:50;21.70;78.00
53926;DHT22;39836;52.754;6.866;2023-09-12T18:47:16;21.70;78.10
53926;DHT22;39836;52.754;6.866;2023-09-12T18:49:43;21.70;78.10
53926;DHT22;39836;52.754;6.866;2023-09-12T18:52:09;21.70;78.10
53926;DHT22;39836;52.754;6.866;2023-09-12T18:54:35;21.60;78.10
53926;DHT22;39836;52.754;6.866;2023-09-12T18:57:08;21.60;78.20
53926;DHT22;39836;52.754;6.866;2023-09-12T18:59:35;21.50;78.20
53926;DHT22;39836;52.754;6.866;2023-09-12T19:02:00;21.50;78.30
53926;DHT22;39836;52.754;6.866;2023-09-12T19:04:27;21.40;78.40
53926;DHT22;39836;52.754;6.866;2023-09-12T19:06:56;21.40;78.40
53926;DHT22;39836;52.754;6.866;2023-09-12T19:09:22;21.30;78.40
53926;DHT22;39836;52.754;6.866;2023-09-12T19:11:49;21.30;78.50
53926;DHT22;39836;52.754;6.866;2023-09-12T19:14:15;21.30;78.50
53926;DHT22;39836;52.754;6.866;2023-09-12T19:16:44;21.30;78.60
53926;DHT22;39836;52.754;6.866;2023-09-12T19:19:11;21.20;78.70
53926;DHT22;39836;52.754;6.866;2023-09-12T19:21:37;21.20;78.60
53926;DHT22;39836;52.754;6.866;2023-09-12T19:24:03;21.20;78.70
53926;DHT22;39836;52.754;6.866;2023-09-12T19:26:30;21.20;78.70
53926;DHT22;39836;52.754;6.866;2023-09-12T19:28:58;21.10;78.80
53926;DHT22;39836;52.754;6.866;2023-09-12T19:31:23;21.10;78.80
53926;DHT22;39836;52.754;6.866;2023-09-12T19:33:49;21.10;78.90
53926;DHT22;39836;52.754;6.866;2023-09-12T19:36:18;21.00;78.90
53926;DHT22;39836;52.754;6.866;2023-09-12T19:38:45;20.90;79.00
53926;DHT22;39836;52.754;6.866;2023-09-12T19:41:11;20.80;79.10
53926;DHT22;39836;52.754;6.866;2023-09-12T19:43:37;20.80;79.10
53926;DHT22;39836;52.754;6.866;2023-09-12T19:46:06;20.80;79.20
53926;DHT22;39836;52.754;6.866;2023-09-12T19:48:33;20.70;79.30
53926;DHT22;39836;52.754;6.866;2023-09-12T19:50:59;20.70;79.30
53926;DHT22;39836;52.754;6.866;2023-09-12T19:53:27;20.80;79.40
53926;DHT22;39836;52.754;6.866;2023-09-12T19:55:57;20.70;79.50
53926;DHT22;39836;52.754;6.866;2023-09-12T19:58:23;20.60;79.50
53926;DHT22;39836;52.754;6.866;2023-09-12T20:00:49;20.60;79.60
53926;DHT22;39836;52.754;6.866;2023-09-12T20:03:18;20.60;79.70
53926;DHT22;39836;52.754;6.866;2023-09-12T20:05:47;20.50;79.70
53926;DHT22;39836;52.754;6.866;2023-09-12T20:08:13;20.60;79.60
53926;DHT22;39836;52.754;6.866;2023-09-12T20:10:40;20.60;79.60
53926;DHT22;39836;52.754;6.866;2023-09-12T20:13:05;20.60;79.70
53926;DHT22;39836;52.754;6.866;2023-09-12T20:15:35;20.50;79.70
53926;DHT22;39836;52.754;6.866;2023-09-12T20:18:06;20.60;79.70
53926;DHT22;39836;52.754;6.866;2023-09-12T20:20:32;20.60;79.70
53926;DHT22;39836;52.754;6.866;2023-09-12T20:22:58;20.50;79.70
53926;DHT22;39836;52.754;6.866;2023-09-12T20:25:23;20.50;79.80
53926;DHT22;39836;52.754;6.866;2023-09-12T20:27:49;20.40;79.80
53926;DHT22;39836;52.754;6.866;2023-09-12T20:30:15;20.40;79.90
53926;DHT22;39836;52.754;6.866;2023-09-12T20:32:44;20.40;80.00
53926;DHT22;39836;52.754;6.866;2023-09-12T20:35:10;20.30;80.10
53926;DHT22;39836;52.754;6.866;2023-09-12T20:37:37;20.30;80.30
53926;DHT22;39836;52.754;6.866;2023-09-12T20:40:04;20.30;80.40
53926;DHT22;39836;52.754;6.866;2023-09-12T20:42:30;20.20;80.50
53926;DHT22;39836;52.754;6.866;2023-09-12T20:44:55;20.20;80.50
53926;DHT22;39836;52.754;6.866;2023-09-12T20:47:21;20.10;80.60
53926;DHT22;39836;52.754;6.866;2023-09-12T20:49:52;20.10;80.70
53926;DHT22;39836;52.754;6.866;2023-09-12T20:52:22;20.10;80.70
53926;DHT22;39836;52.754;6.866;2023-09-12T20:54:47;20.10;80.80
53926;DHT22;39836;52.754;6.866;2023-09-12T20:57:13;20.00;80.80
53926;DHT22;39836;52.754;6.866;2023-09-12T20:59:39;20.00;80.80
53926;DHT22;39836;52.754;6.866;2023-09-12T21:02:05;20.00;80.90
53926;DHT22;39836;52.754;6.866;2023-09-12T21:04:33;20.00;81.00
53926;DHT22;39836;52.754;6.866;2023-09-12T21:06:59;20.00;80.90
53926;DHT22;39836;52.754;6.866;2023-09-12T21:09:26;20.00;80.80
53926;DHT22;39836;52.754;6.866;2023-09-12T21:11:51;20.10;80.90
53926;DHT22;39836;52.754;6.866;2023-09-12T21:14:17;20.00;80.80
53926;DHT22;39836;52.754;6.866;2023-09-12T21:16:43;20.00;80.80
53926;DHT22;39836;52.754;6.866;2023-09-12T21:19:09;20.00;80.90
53926;DHT22;39836;52.754;6.866;2023-09-12T21:21:34;20.00;80.90
53926;DHT22;39836;52.754;6.866;2023-09-12T21:24:00;20.00;80.90
53926;DHT22;39836;52.754;6.866;2023-09-12T21:26:26;20.00;81.00
53926;DHT22;39836;52.754;6.866;2023-09-12T21:28:51;20.00;81.00
53926;DHT22;39836;52.754;6.866;2023-09-12T21:31:17;20.00;80.90
53926;DHT22;39836;52.754;6.866;2023-09-12T21:33:43;20.00;81.00
53926;DHT22;39836;52.754;6.866;2023-09-12T21:36:09;20.00;80.90
53926;DHT22;39836;52.754;6.866;2023-09-12T21:38:36;20.00;81.00
53926;DHT22;39836;52.754;6.866;2023-09-12T21:41:03;20.00;81.00
53926;DHT22;39836;52.754;6.866;2023-09-12T21:43:29;20.00;81.00
53926;DHT22;39836;52.754;6.866;2023-09-12T21:45:55;20.00;81.00
53926;DHT22;39836;52.754;6.866;2023-09-12T21:48:20;20.00;81.00
53926;DHT22;39836;52.754;6.866;2023-09-12T21:50:46;20.00;81.00
53926;DHT22;39836;52.754;6.866;2023-09-12T21:53:12;20.00;81.00
53926;DHT22;39836;52.754;6.866;2023-09-12T21:55:37;20.00;81.10
53926;DHT22;39836;52.754;6.866;2023-09-12T21:58:04;20.00;81.10
53926;DHT22;39836;52.754;6.866;2023-09-12T22:00:30;20.00;81.10
53926;DHT22;39836;52.754;6.866;2023-09-12T22:02:59;19.90;81.10
53926;DHT22;39836;52.754;6.866;2023-09-12T22:05:26;20.00;81.10
53926;DHT22;39836;52.754;6.866;2023-09-12T22:07:53;19.90;81.00
53926;DHT22;39836;52.754;6.866;2023-09-12T22:10:19;19.90;81.10
53926;DHT22;39836;52.754;6.866;2023-09-12T22:12:45;20.00;81.10
53926;DHT22;39836;52.754;6.866;2023-09-12T22:15:11;19.90;81.00
53926;DHT22;39836;52.754;6.866;2023-09-12T22:17:37;20.00;81.10
53926;DHT22;39836;52.754;6.866;2023-09-12T22:20:03;20.00;81.10
53926;DHT22;39836;52.754;6.866;2023-09-12T22:22:32;19.90;81.00
53926;DHT22;39836;52.754;6.866;2023-09-12T22:24:58;20.00;81.10
53926;DHT22;39836;52.754;6.866;2023-09-12T22:27:24;20.00;81.10
53926;DHT22;39836;52.754;6.866;2023-09-12T22:29:51;19.90;81.10
53926;DHT22;39836;52.754;6.866;2023-09-12T22:32:18;19.90;81.10
53926;DHT22;39836;52.754;6.866;2023-09-12T22:34:43;19.90;81.20
53926;DHT22;39836;52.754;6.866;2023-09-12T22:37:10;19.90;81.30
53926;DHT22;39836;52.754;6.866;2023-09-12T22:39:36;19.90;81.40
53926;DHT22;39836;52.754;6.866;2023-09-12T22:42:02;19.80;81.40
53926;DHT22;39836;52.754;6.866;2023-09-12T22:44:28;19.80;81.40
53926;DHT22;39836;52.754;6.866;2023-09-12T22:46:53;19.80;81.50
53926;DHT22;39836;52.754;6.866;2023-09-12T22:49:19;19.80;81.50
53926;DHT22;39836;52.754;6.866;2023-09-12T22:51:45;19.80;81.70
53926;DHT22;39836;52.754;6.866;2023-09-12T22:54:10;19.80;81.60
53926;DHT22;39836;52.754;6.866;2023-09-12T22:56:36;19.80;81.70
53926;DHT22;39836;52.754;6.866;2023-09-12T22:59:02;19.70;81.70
53926;DHT22;39836;52.754;6.866;2023-09-12T23:01:31;19.70;81.80
53926;DHT22;39836;52.754;6.866;2023-09-12T23:03:57;19.70;81.70
53926;DHT22;39836;52.754;6.866;2023-09-12T23:06:23;19.70;81.70
53926;DHT22;39836;52.754;6.866;2023-09-12T23:08:49;19.70;81.70
53926;DHT22;39836;52.754;6.866;2023-09-12T23:11:14;19.70;81.70
53926;DHT22;39836;52.754;6.866;2023-09-12T23:13:40;19.60;81.70
53926;DHT22;39836;52.754;6.866;2023-09-12T23:16:06;19.60;81.80
53926;DHT22;39836;52.754;6.866;2023-09-12T23:18:32;19.60;81.80
53926;DHT22;39836;52.754;6.866;2023-09-12T23:20:57;19.50;81.80
53926;DHT22;39836;52.754;6.866;2023-09-12T23:23:23;19.50;81.90
53926;DHT22;39836;52.754;6.866;2023-09-12T23:25:49;19.40;81.90
53926;DHT22;39836;52.754;6.866;2023-09-12T23:28:14;19.40;81.90
53926;DHT22;39836;52.754;6.866;2023-09-12T23:30:41;19.40;82.00
53926;DHT22;39836;52.754;6.866;2023-09-12T23:33:07;19.30;82.00
53926;DHT22;39836;52.754;6.866;2023-09-12T23:35:33;19.20;82.10
53926;DHT22;39836;52.754;6.866;2023-09-12T23:37:58;19.20;82.10
53926;DHT22;39836;52.754;6.866;2023-09-12T23:40:24;19.20;82.10
53926;DHT22;39836;52.754;6.866;2023-09-12T23:42:50;19.20;82.20
53926;DHT22;39836;52.754;6.866;2023-09-12T23:45:15;19.20;82.20
53926;DHT22;39836;52.754;6.866;2023-09-12T23:47:41;19.20;82.30
53926;DHT22;39836;52.754;6.866;2023-09-12T23:50:08;19.20;82.30
53926;DHT22;39836;52.754;6.866;2023-09-12T23:52:34;19.20;82.30
53926;DHT22;39836;52.754;6.866;2023-09-12T23:55:00;19.20;82.30
53926;DHT22;39836;52.754;6.866;2023-09-12T23:57:26;19.20;82.40
53926;DHT22;39836;52.754;6.866;2023-09-12T23:59:52;19.20;82.40
